Thursday, February 22, 2018, 5:50 AM EST
Back to Local

KDAW, Skyhaven Airport

Location: Rochester, NH, United States Lat: 43.283
Local Time: 5:50 AM EST (10:50 GMT) Lon: -70.917
Time Zone: US/Eastern Elev: 321 ft

Show me the last for .
Show Decoded

2018-02-22 04:51 METAR KDAW 220951Z AUTO 31008KT 10SM OVC090 03/M05 A3056 RMK AO2 PRESRR SLP345
                 T00331050 =
2018-02-22 03:51 METAR KDAW 220851Z AUTO 32012KT 10SM OVC085 03/M04 A3052 RMK AO2 SLP334
                 T00331044 51026 =
2018-02-22 02:51 METAR KDAW 220751Z AUTO 32012KT 10SM OVC080 04/M04 A3051 RMK AO2 SLP330
                 T00441044 =
2018-02-22 01:51 METAR KDAW 220651Z AUTO 32010KT 10SM OVC080 05/M04 A3049 RMK AO2 SLP321
                 T00501039 =
2018-02-22 00:51 METAR KDAW 220551Z AUTO 32015G22KT 10SM OVC085 06/M02 A3045 RMK AO2 SLP308
                 T00611022 10144 20061 53042 =
2018-02-21 23:51 METAR KDAW 220451Z AUTO 31010KT 10SM FEW090 07/M02 A3040 RMK AO2 SLP292
                 T00721017 402390006 =
2018-02-21 22:51 METAR KDAW 220351Z AUTO 30009KT 10SM OVC100 09/M01 A3035 RMK AO2 SLP274
                 T00891011 =
2018-02-21 21:51 METAR KDAW 220251Z AUTO 30011KT 10SM OVC090 10/01 A3032 RMK AO2 SLP265 T01000011
                 51038 =
2018-02-21 20:51 METAR KDAW 220151Z AUTO 31014G23KT 10SM OVC070 11/02 A3029 RMK AO2 SLP256
                 T01110022 =
2018-02-21 19:51 METAR KDAW 220051Z AUTO 32013G21KT 10SM SCT038 OVC065 12/06 A3027 RMK AO2 PK WND
                 32031/0000 SLP248 T01170061 =
2018-02-21 18:51 METAR KDAW 212351Z AUTO 31021G31KT 10SM SCT030 OVC049 14/10 A3021 RMK AO2 PK WND
                 32031/2343 SLP228 T01440100 10239 20144 53062 =
2018-02-21 17:51 METAR KDAW 212251Z AUTO 30015G31KT 10SM BKN050 OVC065 21/12 A3012 RMK AO2 PK WND
                 31031/2246 PRESRR SLP199 T02060122 =
2018-02-21 16:51 METAR KDAW 212151Z AUTO VRB04KT 10SM CLR 23/12 A3005 RMK AO2 SLP174 T02280122 =
2018-02-21 15:51 METAR KDAW 212051Z AUTO VRB04KT 10SM CLR 23/13 A3002 RMK AO2 SLP164 T02280128
                 56012 =
2018-02-21 14:51 METAR KDAW 211951Z AUTO 10SM CLR 24/12 A3002 RMK AO2 SLP165 T02390122 =
2018-02-21 13:51 METAR KDAW 211851Z AUTO VRB06KT 10SM CLR 23/13 A3003 RMK AO2 SLP166 T02330133 =
2018-02-21 12:51 METAR KDAW 211751Z AUTO VRB06KT 10SM CLR 20/13 A3006 RMK AO2 SLP176 T02000133
                 10200 20006 58027 =
2018-02-21 11:51 METAR KDAW 211651Z AUTO VRB04KT 10SM CLR 17/13 A3009 RMK AO2 SLP189 T01720128 =
2018-02-21 10:51 METAR KDAW 211551Z AUTO VRB04KT 10SM CLR 16/13 A3013 RMK AO2 SLP202 T01610128 =
2018-02-21 09:51 METAR KDAW 211451Z AUTO 00000KT 10SM CLR 11/10 A3014 RMK AO2 SLP204 T01110100
                 58008 =
2018-02-21 09:20 METAR KDAW 211420Z AUTO 00000KT 10SM FEW002 09/09 A3015 RMK AO2 T00940089 =
2018-02-21 09:13 METAR KDAW 211413Z AUTO 00000KT 9SM BKN002 08/08 A3015 RMK AO2 T00830083 =
2018-02-21 09:01 METAR KDAW 211401Z AUTO 00000KT 5SM BR OVC001 07/07 A3015 RMK AO2 T00720072 =
2018-02-21 08:51 METAR KDAW 211351Z AUTO 00000KT 2SM BR OVC001 06/06 A3015 RMK AO2 VIS 1 1/2V3
                 SLP210 T00610061 =
2018-02-21 08:44 METAR KDAW 211344Z AUTO 00000KT 1 1/4SM BR OVC001 06/06 A3016 RMK AO2 T00560056
                 =
2018-02-21 08:35 METAR KDAW 211335Z AUTO VRB03KT 1 3/4SM BR OVC002 04/04 A3015 RMK AO2 T00440044
                 =
2018-02-21 08:31 METAR KDAW 211331Z AUTO 00000KT 3SM BR OVC002 04/04 A3015 RMK AO2 T00390039 =
2018-02-21 08:23 METAR KDAW 211323Z AUTO 00000KT 2SM BR OVC002 03/03 A3016 RMK AO2 VIS 1V5
                 T00330033 =
2018-02-21 08:18 METAR KDAW 211318Z AUTO 00000KT 3/4SM BR OVC002 03/03 A3016 RMK AO2 T00330033 =
2018-02-21 08:08 METAR KDAW 211308Z AUTO 00000KT 1 3/4SM BR OVC002 02/02 A3016 RMK AO2 T00220022
                 =
2018-02-21 07:51 METAR KDAW 211251Z AUTO 00000KT 8SM OVC002 02/02 A3016 RMK AO2 SLP212 T00170017
                 =
2018-02-21 07:12 METAR KDAW 211212Z AUTO 00000KT 8SM BKN002 01/01 A3016 RMK AO2 T00110011 =
2018-02-21 06:51 METAR KDAW 211151Z AUTO 00000KT 8SM FEW004 01/01 A3016 RMK AO2 SLP213 T00060006
                 10033 20006 58011 =
2018-02-21 06:07 METAR KDAW 211107Z AUTO 00000KT 4SM BR FEW006 01/01 A3017 RMK AO2 T00060006 =
2018-02-21 05:51 METAR KDAW 211051Z AUTO 00000KT 9SM CLR 01/01 A3017 RMK AO2 SLP216 T00110011 =

Support USWX by starting your Amazon purchase here.